Hlavní strana
METAR-TAF:

METAR-TAF

Letiště :

Pisa, Itálie

zeměpisná šířka: 43-41N, zeměpisná délka: 010-23E, výška: 2 m

Aktuální stav počasí

Zpráva byla vytvořena před 49 minutami, v 14:15 UTC
Východoseverovýchodní vítr 9 kt
Teplota 12°C
Vlhkost vzduchu 44%
Tlak 1019 hPa
Viditelnost 10 km a více
Polojasno ve výšce 6000 ft

METAR: LIRP 191415Z 07009KT 9999 SCT060 12/00 Q1019 NOSIG

Čas: 16:04 (15:04 UTC)

Předpověď počasí

Zpráva byla vytvořena před 4 hodinami a 4 minutami, v 11:00 UTC
Předpověď platná od 19 v 12 UTC do 20 v 12 UTC
Východoseverovýchodní vítr 12 kt
Viditelnost 10 km a více
Žádná oblačnost pod 1500 m, nevyskytují se cumulonimby.
Dočasný
od 19 v 12 UTC do 19 v 21 UTC
Východoseverovýchodní vítr 15 kt s nárazy do 25 kt
Dočasný
od 20 v 09 UTC do 20 v 12 UTC
Východoseverovýchodní vítr 20 kt s nárazy do 35 kt

TAF: LIRP 191100Z 1912/2012 07012KT CAVOK TEMPO 1912/1921 07015G25KT TEMPO 2009/2012 07020G35KT

Stav a předpovědi počasí z více než 4 000 letišť (zprávy METAR a TAF).

Červené a žluté tečky na mapě představují dostupné meteorologické stanice.

Když kurzor umístíte na tečku, zobrazí se název stanice.

Pak kliknutím zobrazíte stav a předpověď počasí.

Chcete-li změnit mapu, kliknutím na zelené tlačítko se znaménkem +mapu přiblížíte, kliknutím na zelené tlačítko se znaménkem – mapu oddálíte a kliknutím na zelené šipky přejdete na sousední mapy.


METAR-TAF: